createdAt,value
2024-02-29T00:01:29.348Z,38.23
2024-02-29T00:04:05.334Z,42.70
2024-02-29T00:06:39.289Z,40.90
2024-02-29T00:09:19.293Z,42.17
2024-02-29T00:12:00.227Z,38.73
2024-02-29T00:14:31.531Z,41.47
2024-02-29T00:17:07.492Z,38.50
2024-02-29T00:19:42.030Z,45.93
2024-02-29T00:22:13.760Z,39.57
2024-02-29T00:24:48.125Z,42.33
2024-02-29T00:27:30.378Z,46.27
2024-02-29T00:30:02.876Z,48.50
2024-02-29T00:32:42.901Z,46.63
2024-02-29T00:35:34.952Z,46.27
2024-02-29T00:38:09.030Z,48.60
2024-02-29T00:40:40.587Z,49.10
2024-02-29T00:43:15.257Z,48.13
2024-02-29T00:45:46.840Z,50.97
2024-02-29T00:48:20.634Z,52.13
2024-02-29T00:50:54.099Z,53.90
2024-02-29T00:53:25.188Z,56.07
2024-02-29T00:56:17.090Z,52.83
2024-02-29T00:58:55.903Z,55.00
2024-02-29T01:01:30.564Z,50.03
2024-02-29T01:04:09.524Z,50.47
2024-02-29T01:06:42.493Z,52.53
2024-02-29T01:09:14.301Z,46.33
2024-02-29T01:11:45.875Z,50.73
2024-02-29T01:14:17.063Z,50.27
2024-02-29T01:17:10.802Z,51.97
2024-02-29T01:20:15.729Z,56.17
2024-02-29T01:22:49.428Z,56.87
2024-02-29T01:26:00.966Z,55.27
2024-02-29T01:28:45.344Z,58.87
2024-02-29T01:31:19.836Z,61.07
2024-02-29T01:33:54.541Z,55.57
2024-02-29T01:36:51.901Z,60.37
2024-02-29T01:39:46.773Z,61.90
2024-02-29T01:42:47.491Z,61.67
2024-02-29T01:45:19.169Z,54.93
2024-02-29T01:47:50.308Z,61.90
2024-02-29T01:50:27.137Z,59.13
2024-02-29T01:53:03.982Z,56.70
2024-02-29T01:55:35.622Z,62.57
2024-02-29T01:58:17.021Z,64.03
2024-02-29T02:01:08.776Z,63.17
2024-02-29T02:03:48.197Z,65.37
2024-02-29T02:06:19.629Z,67.73
2024-02-29T02:08:53.921Z,67.23
2024-02-29T02:11:55.516Z,68.63
2024-02-29T02:14:26.948Z,68.20
2024-02-29T02:17:03.755Z,67.30
2024-02-29T02:19:43.997Z,67.50
2024-02-29T02:22:57.223Z,69.47
2024-02-29T02:25:41.716Z,69.40
2024-02-29T02:28:16.426Z,72.77
2024-02-29T02:30:48.424Z,68.23
2024-02-29T02:33:20.109Z,71.17
2024-02-29T02:36:11.812Z,75.07
2024-02-29T02:39:09.503Z,72.83
2024-02-29T02:41:53.960Z,76.10
2024-02-29T02:44:25.279Z,73.57
2024-02-29T02:46:56.878Z,73.20
2024-02-29T02:49:28.174Z,80.63
2024-02-29T02:51:59.696Z,80.90
2024-02-29T02:54:38.723Z,83.33
2024-02-29T02:57:12.980Z,78.80
2024-02-29T03:00:07.719Z,81.20
2024-02-29T03:02:48.772Z,80.43
2024-02-29T03:05:24.040Z,77.30
2024-02-29T03:07:55.271Z,81.13
2024-02-29T03:10:35.662Z,83.67
2024-02-29T03:13:25.340Z,75.20
2024-02-29T03:16:29.845Z,79.90
2024-02-29T03:19:06.388Z,81.73
2024-02-29T03:21:44.187Z,81.67
2024-02-29T03:24:15.917Z,78.67
2024-02-29T03:26:50.077Z,84.73
2024-02-29T03:29:21.335Z,80.67
2024-02-29T03:32:00.158Z,83.07
2024-02-29T03:34:37.792Z,82.40
2024-02-29T03:37:09.568Z,90.57
2024-02-29T03:39:54.621Z,89.73
2024-02-29T03:42:32.139Z,80.63
2024-02-29T03:45:13.764Z,86.33
2024-02-29T03:48:11.232Z,86.57
2024-02-29T03:50:56.839Z,82.10
2024-02-29T03:53:32.920Z,87.73
2024-02-29T03:56:08.245Z,84.33
2024-02-29T03:58:45.774Z,88.97
2024-02-29T04:01:22.385Z,85.90
2024-02-29T04:03:53.367Z,85.93
2024-02-29T04:06:27.603Z,86.10
2024-02-29T04:08:58.992Z,89.73
2024-02-29T04:11:30.354Z,91.50
2024-02-29T04:14:05.386Z,88.70
2024-02-29T04:16:40.154Z,97.27
2024-02-29T04:19:11.606Z,91.07
2024-02-29T04:21:47.734Z,91.23
2024-02-29T04:24:18.806Z,90.23
2024-02-29T04:26:53.362Z,94.47
2024-02-29T04:29:27.497Z,94.90
2024-02-29T04:32:02.563Z,95.03
2024-02-29T04:34:38.613Z,105.10
2024-02-29T04:37:10.218Z,92.07
2024-02-29T04:39:44.461Z,100.50
2024-02-29T04:42:18.719Z,95.47
2024-02-29T04:44:55.064Z,97.37
2024-02-29T04:47:26.590Z,96.40
2024-02-29T04:50:04.668Z,101.63
2024-02-29T04:52:36.242Z,97.87
2024-02-29T04:55:08.365Z,102.63
2024-02-29T04:57:40.019Z,98.47
2024-02-29T05:00:18.961Z,101.47
2024-02-29T05:03:19.485Z,103.40
2024-02-29T05:05:56.877Z,96.13
2024-02-29T05:08:31.975Z,102.73
2024-02-29T05:11:03.493Z,101.13
2024-02-29T05:13:59.311Z,102.33
2024-02-29T05:16:53.773Z,103.23
2024-02-29T05:19:53.444Z,102.43
2024-02-29T05:22:40.071Z,97.67
2024-02-29T05:25:14.991Z,96.83
2024-02-29T05:27:46.468Z,100.63
2024-02-29T05:30:21.873Z,100.63
2024-02-29T05:33:13.988Z,105.23
2024-02-29T05:35:59.197Z,90.00
2024-02-29T05:38:33.700Z,103.57
2024-02-29T05:41:08.805Z,99.50
2024-02-29T05:43:43.220Z,101.87
2024-02-29T05:46:14.839Z,90.03
2024-02-29T05:48:51.996Z,103.13
2024-02-29T05:51:23.564Z,98.40
2024-02-29T05:53:54.839Z,99.23
2024-02-29T05:56:26.521Z,101.07
2024-02-29T05:59:00.346Z,100.97
2024-02-29T06:01:35.068Z,95.33
2024-02-29T06:04:22.426Z,94.93
2024-02-29T06:06:59.142Z,90.20
2024-02-29T06:09:36.682Z,97.53
2024-02-29T06:12:08.640Z,94.07
2024-02-29T06:14:43.307Z,95.67
2024-02-29T06:17:15.361Z,91.00
2024-02-29T06:19:52.550Z,88.60
2024-02-29T06:22:27.809Z,90.83
2024-02-29T06:25:10.963Z,88.10
2024-02-29T06:27:44.747Z,88.47
2024-02-29T06:30:33.832Z,88.07
2024-02-29T06:33:45.790Z,92.20
2024-02-29T06:36:25.597Z,87.43
2024-02-29T06:39:17.208Z,85.37
2024-02-29T06:41:48.553Z,84.73
2024-02-29T06:44:42.502Z,85.60
2024-02-29T06:47:19.077Z,85.03
2024-02-29T06:49:50.388Z,76.50
2024-02-29T06:52:24.498Z,84.37
2024-02-29T06:54:59.028Z,76.00
2024-02-29T06:57:32.845Z,84.47
2024-02-29T07:00:27.692Z,80.30
2024-02-29T07:02:59.201Z,75.97
2024-02-29T07:05:41.665Z,76.70
2024-02-29T07:08:37.649Z,75.23
2024-02-29T07:11:40.740Z,71.63
2024-02-29T07:14:40.477Z,72.67
2024-02-29T07:18:15.555Z,69.40
2024-02-29T07:20:53.783Z,66.37
2024-02-29T07:23:27.520Z,65.57
2024-02-29T07:26:06.832Z,69.40
2024-02-29T07:28:38.298Z,67.33
2024-02-29T07:31:10.041Z,62.43
2024-02-29T07:33:55.263Z,68.30
2024-02-29T07:36:27.421Z,64.73
2024-02-29T07:38:58.656Z,66.43
2024-02-29T07:41:53.300Z,62.97
2024-02-29T07:44:35.980Z,59.80
2024-02-29T07:47:07.282Z,56.17
2024-02-29T07:49:51.275Z,54.90
2024-02-29T07:53:03.132Z,60.30
2024-02-29T07:55:34.611Z,53.33
2024-02-29T07:58:11.682Z,52.77
2024-02-29T08:01:04.516Z,48.03
2024-02-29T08:03:58.248Z,52.13
2024-02-29T08:06:50.103Z,51.73
2024-02-29T08:09:24.180Z,47.53
2024-02-29T08:11:59.904Z,50.93
2024-02-29T08:14:36.900Z,44.03
2024-02-29T08:17:35.925Z,44.43
2024-02-29T08:20:09.542Z,48.67
2024-02-29T08:22:41.134Z,43.37
2024-02-29T08:25:13.345Z,43.60
2024-02-29T08:27:53.887Z,45.57
2024-02-29T08:30:30.811Z,46.00
2024-02-29T08:33:11.567Z,39.40
2024-02-29T08:35:43.372Z,44.57
2024-02-29T08:38:14.713Z,42.00
2024-02-29T08:40:54.295Z,40.23
2024-02-29T08:43:48.175Z,37.77
2024-02-29T08:46:22.327Z,40.93
2024-02-29T08:48:53.948Z,41.07
2024-02-29T08:51:25.354Z,39.17
2024-02-29T08:54:07.566Z,37.03
2024-02-29T08:56:39.204Z,39.20
2024-02-29T08:59:27.961Z,39.30
2024-02-29T09:02:06.958Z,37.27
2024-02-29T09:04:38.285Z,37.17
2024-02-29T09:07:11.112Z,40.27
2024-02-29T09:10:01.584Z,43.87
2024-02-29T09:12:43.256Z,39.40
2024-02-29T09:15:35.130Z,36.50
2024-02-29T09:18:10.512Z,34.83
2024-02-29T09:20:41.716Z,38.23
2024-02-29T09:23:20.696Z,36.80
2024-02-29T09:25:55.475Z,36.93
2024-02-29T09:28:30.363Z,39.20
2024-02-29T09:31:01.948Z,35.05
2024-02-29T09:33:39.064Z,35.80
2024-02-29T09:36:14.256Z,35.00
2024-02-29T09:39:06.621Z,34.47
2024-02-29T09:41:59.504Z,36.00
2024-02-29T09:44:31.772Z,35.95
2024-02-29T09:47:03.503Z,32.47
2024-02-29T09:49:37.755Z,36.40
2024-02-29T09:52:11.268Z,30.55
2024-02-29T09:54:47.403Z,31.70
2024-02-29T09:57:18.953Z,34.78
2024-02-29T09:59:51.776Z,28.85
2024-02-29T10:02:23.492Z,33.75
2024-02-29T10:04:57.941Z,34.85
2024-02-29T10:07:47.245Z,33.70
2024-02-29T10:10:23.949Z,30.02
2024-02-29T10:13:26.660Z,26.35
2024-02-29T10:16:20.877Z,28.67
2024-02-29T10:18:55.567Z,27.42
2024-02-29T10:21:37.302Z,33.65
2024-02-29T10:24:11.583Z,29.02
2024-02-29T10:26:43.331Z,27.48
2024-02-29T10:29:23.855Z,24.98
2024-02-29T10:31:55.361Z,24.33
2024-02-29T10:34:30.084Z,25.60
2024-02-29T10:37:07.667Z,24.80
2024-02-29T10:39:42.140Z,22.05
2024-02-29T10:42:15.178Z,19.67
2024-02-29T10:44:49.318Z,22.40
2024-02-29T10:47:22.068Z,23.35
2024-02-29T10:49:59.690Z,20.50
2024-02-29T10:52:39.368Z,17.40
2024-02-29T10:55:16.555Z,19.67
2024-02-29T10:57:57.921Z,17.55
2024-02-29T11:00:30.076Z,17.35
2024-02-29T11:03:02.072Z,18.25
2024-02-29T11:05:33.574Z,18.45
2024-02-29T11:08:08.940Z,18.50
2024-02-29T11:10:40.893Z,20.08
2024-02-29T11:13:22.881Z,21.88
2024-02-29T11:15:55.221Z,17.65
2024-02-29T11:18:29.492Z,17.67
2024-02-29T11:21:10.858Z,17.10
2024-02-29T11:23:51.151Z,17.15
2024-02-29T11:26:32.811Z,19.15
2024-02-29T11:29:35.461Z,19.52
2024-02-29T11:32:10.519Z,19.90
2024-02-29T11:34:45.432Z,18.75
2024-02-29T11:37:22.621Z,18.48
2024-02-29T11:40:06.961Z,19.73
2024-02-29T11:42:40.666Z,18.13
2024-02-29T11:45:32.992Z,20.77
2024-02-29T11:48:22.287Z,17.83
2024-02-29T11:51:08.073Z,16.40
2024-02-29T11:53:40.514Z,16.80
2024-02-29T11:56:16.606Z,15.75
2024-02-29T11:58:50.653Z,18.13
2024-02-29T12:01:30.470Z,15.60
2024-02-29T12:04:06.388Z,14.93
2024-02-29T12:06:41.884Z,16.85
2024-02-29T12:09:21.100Z,17.88
2024-02-29T12:11:58.646Z,16.45
2024-02-29T12:14:53.500Z,17.80
2024-02-29T12:17:29.281Z,18.25
2024-02-29T12:20:21.317Z,15.90
2024-02-29T12:23:12.770Z,16.95
2024-02-29T12:25:44.376Z,20.42
2024-02-29T12:28:19.320Z,17.60
2024-02-29T12:30:53.052Z,21.45
2024-02-29T12:33:26.453Z,18.83
2024-02-29T12:36:02.237Z,23.67
2024-02-29T12:38:36.399Z,18.30
2024-02-29T12:41:11.893Z,18.25
2024-02-29T12:43:55.766Z,16.42
2024-02-29T12:46:30.579Z,22.05
2024-02-29T12:49:05.280Z,18.98
2024-02-29T12:51:43.650Z,19.92
2024-02-29T12:54:33.267Z,18.65
2024-02-29T12:57:11.241Z,18.10
2024-02-29T13:00:07.141Z,19.63
2024-02-29T13:02:49.511Z,21.77
2024-02-29T13:05:31.725Z,22.60
2024-02-29T13:08:05.940Z,19.92
2024-02-29T13:10:38.573Z,19.17
2024-02-29T13:13:13.092Z,30.25
2024-02-29T13:15:48.118Z,17.90
2024-02-29T13:18:28.927Z,19.23
2024-02-29T13:21:03.834Z,19.38
2024-02-29T13:23:38.016Z,16.55
2024-02-29T13:26:09.643Z,20.02
2024-02-29T13:28:45.368Z,22.55
2024-02-29T13:31:20.182Z,20.42
2024-02-29T13:33:52.359Z,20.23
2024-02-29T13:36:24.066Z,22.15
2024-02-29T13:38:56.467Z,17.88
2024-02-29T13:41:28.590Z,20.35
2024-02-29T13:44:02.647Z,18.92
2024-02-29T13:46:38.446Z,22.38
2024-02-29T13:49:21.465Z,23.30
2024-02-29T13:52:19.094Z,19.77
2024-02-29T13:55:06.780Z,21.55
2024-02-29T13:58:03.431Z,19.83
2024-02-29T14:00:53.641Z,24.17
2024-02-29T14:03:41.110Z,22.15
2024-02-29T14:06:19.653Z,19.08
2024-02-29T14:08:55.163Z,19.05
2024-02-29T14:11:29.949Z,19.58
2024-02-29T14:14:02.706Z,21.05
2024-02-29T14:16:37.795Z,21.05
2024-02-29T14:19:12.431Z,19.52
2024-02-29T14:21:44.585Z,18.13
2024-02-29T14:24:15.920Z,18.95
2024-02-29T14:26:47.492Z,20.05
2024-02-29T14:29:21.824Z,20.58
2024-02-29T14:32:02.725Z,19.13
2024-02-29T14:34:38.810Z,20.67
2024-02-29T14:37:21.504Z,21.38
2024-02-29T14:39:53.977Z,21.58
2024-02-29T14:42:28.833Z,24.35
2024-02-29T14:45:09.539Z,20.08
2024-02-29T14:47:43.791Z,20.08
2024-02-29T14:50:17.965Z,20.42
2024-02-29T14:52:49.098Z,21.05
2024-02-29T14:55:20.235Z,21.52
2024-02-29T14:57:52.631Z,20.50
2024-02-29T15:00:24.770Z,21.42
2024-02-29T15:02:56.763Z,20.63
2024-02-29T15:05:30.762Z,22.20
2024-02-29T15:08:02.592Z,21.45
2024-02-29T15:10:34.170Z,23.58
2024-02-29T15:13:08.748Z,20.65
2024-02-29T15:15:44.055Z,22.40
2024-02-29T15:18:15.269Z,22.42
2024-02-29T15:20:49.142Z,23.48
2024-02-29T15:23:20.447Z,21.73
2024-02-29T15:25:51.662Z,21.67
2024-02-29T15:28:25.864Z,25.35
2024-02-29T15:30:57.435Z,25.02
2024-02-29T15:33:29.119Z,23.90
2024-02-29T15:36:03.329Z,23.52
2024-02-29T15:38:34.828Z,23.35
2024-02-29T15:41:06.220Z,24.52
2024-02-29T15:43:40.794Z,21.02
2024-02-29T15:46:13.358Z,22.35
2024-02-29T15:48:45.426Z,21.95
2024-02-29T15:51:25.681Z,24.23
2024-02-29T15:53:58.852Z,23.25
2024-02-29T15:56:30.678Z,22.92
2024-02-29T15:59:06.635Z,30.88
2024-02-29T16:01:38.603Z,24.55
2024-02-29T16:04:10.358Z,25.63
2024-02-29T16:06:44.836Z,25.80
2024-02-29T16:09:16.946Z,25.48
2024-02-29T16:11:49.139Z,29.00
2024-02-29T16:14:20.979Z,25.58
2024-02-29T16:16:52.785Z,26.60
2024-02-29T16:19:25.566Z,28.67
2024-02-29T16:22:02.020Z,27.73
2024-02-29T16:24:33.110Z,26.05
2024-02-29T16:27:04.521Z,27.73
2024-02-29T16:29:35.969Z,29.65
2024-02-29T16:32:07.811Z,28.17
2024-02-29T16:34:39.620Z,28.92
2024-02-29T16:37:13.875Z,35.00
2024-02-29T16:39:46.240Z,35.05
2024-02-29T16:42:21.321Z,31.38
2024-02-29T16:44:54.373Z,32.28
2024-02-29T16:47:25.903Z,31.33
2024-02-29T16:49:57.724Z,31.65
2024-02-29T16:52:32.458Z,31.13
2024-02-29T16:55:13.184Z,30.73
2024-02-29T16:57:44.606Z,31.70
2024-02-29T17:00:19.642Z,30.10
2024-02-29T17:03:03.567Z,30.45
2024-02-29T17:05:57.698Z,31.15
2024-02-29T17:08:31.760Z,32.05
2024-02-29T17:11:10.735Z,31.95
2024-02-29T17:13:48.069Z,29.77
2024-02-29T17:16:20.410Z,33.45
2024-02-29T17:18:51.725Z,32.85
2024-02-29T17:21:26.777Z,32.67
2024-02-29T17:24:32.260Z,32.47
2024-02-29T17:27:03.516Z,30.33
2024-02-29T17:29:34.851Z,33.13
2024-02-29T17:32:07.777Z,33.42
2024-02-29T17:34:44.126Z,37.25
2024-02-29T17:37:20.462Z,36.95
2024-02-29T17:39:56.029Z,33.08
2024-02-29T17:42:29.220Z,37.03
2024-02-29T17:45:00.794Z,40.83
2024-02-29T17:47:32.538Z,35.97
2024-02-29T17:50:16.936Z,33.47
2024-02-29T17:52:58.364Z,34.63
2024-02-29T17:55:32.858Z,35.15
2024-02-29T17:58:15.172Z,40.40
2024-02-29T18:01:17.314Z,39.57
2024-02-29T18:03:50.378Z,37.70
2024-02-29T18:06:42.033Z,36.80
2024-02-29T18:09:15.048Z,41.30
2024-02-29T18:11:49.254Z,38.25
2024-02-29T18:14:35.390Z,35.27
2024-02-29T18:17:09.405Z,32.23
2024-02-29T18:19:42.240Z,35.73
2024-02-29T18:22:41.614Z,36.63
2024-02-29T18:25:53.697Z,35.37
2024-02-29T18:28:51.024Z,29.80
2024-02-29T18:31:24.596Z,35.67
2024-02-29T18:33:59.051Z,36.40
2024-02-29T18:36:30.532Z,31.70
2024-02-29T18:39:26.366Z,35.57
2024-02-29T18:42:11.481Z,34.20
2024-02-29T18:44:47.220Z,33.97
2024-02-29T18:47:44.364Z,39.80
2024-02-29T18:50:35.953Z,36.40
2024-02-29T18:53:10.698Z,39.73
2024-02-29T18:55:51.368Z,36.90
2024-02-29T18:58:32.304Z,33.60
2024-02-29T19:01:37.226Z,37.67
2024-02-29T19:04:40.286Z,36.87
2024-02-29T19:07:14.089Z,35.87
2024-02-29T19:09:45.450Z,35.90
2024-02-29T19:12:18.257Z,35.73
2024-02-29T19:15:12.618Z,35.93
2024-02-29T19:17:49.293Z,39.60
2024-02-29T19:20:20.799Z,36.20
2024-02-29T19:22:52.337Z,37.73
2024-02-29T19:25:32.594Z,40.07
2024-02-29T19:28:04.083Z,38.60
2024-02-29T19:30:56.286Z,42.90
2024-02-29T19:33:30.271Z,40.23
2024-02-29T19:36:25.088Z,40.20
2024-02-29T19:39:18.662Z,40.13
2024-02-29T19:41:52.633Z,37.37
2024-02-29T19:44:24.185Z,38.17
2024-02-29T19:46:55.793Z,43.83
2024-02-29T19:49:50.266Z,38.53
2024-02-29T19:52:41.725Z,39.43
2024-02-29T19:55:24.025Z,38.23
2024-02-29T19:58:01.144Z,39.60
2024-02-29T20:00:36.531Z,42.20
2024-02-29T20:03:08.841Z,42.80
2024-02-29T20:05:43.779Z,44.43
2024-02-29T20:08:15.681Z,39.27
2024-02-29T20:10:47.129Z,41.93
2024-02-29T20:13:19.995Z,38.83
2024-02-29T20:15:51.988Z,39.87
2024-02-29T20:18:43.725Z,44.27
2024-02-29T20:21:18.341Z,43.77
2024-02-29T20:23:50.185Z,45.37
2024-02-29T20:26:21.618Z,42.20
2024-02-29T20:28:54.234Z,44.67
2024-02-29T20:31:36.678Z,43.80
2024-02-29T20:34:15.476Z,40.87
2024-02-29T20:36:55.772Z,41.83
2024-02-29T20:39:27.027Z,44.90
2024-02-29T20:42:00.864Z,51.20
2024-02-29T20:44:32.245Z,48.57
2024-02-29T20:47:03.488Z,49.10
2024-02-29T20:49:38.170Z,43.30
2024-02-29T20:52:16.598Z,54.40
2024-02-29T20:55:00.390Z,42.43
2024-02-29T20:57:34.865Z,44.50
2024-02-29T21:00:06.568Z,42.43
2024-02-29T21:02:37.614Z,42.47
2024-02-29T21:05:10.481Z,43.17
2024-02-29T21:07:47.721Z,42.00
2024-02-29T21:10:22.662Z,46.87
2024-02-29T21:12:57.669Z,48.97
2024-02-29T21:15:28.842Z,48.40
2024-02-29T21:18:00.097Z,47.23
2024-02-29T21:20:35.544Z,42.80
2024-02-29T21:23:09.904Z,47.47
2024-02-29T21:25:50.434Z,43.87
2024-02-29T21:28:22.271Z,45.33
2024-02-29T21:31:14.925Z,45.30
2024-02-29T21:33:46.362Z,45.77
2024-02-29T21:36:58.176Z,43.43
2024-02-29T21:39:55.198Z,49.53
2024-02-29T21:42:40.326Z,45.17
2024-02-29T21:45:22.050Z,50.00
2024-02-29T21:48:13.834Z,45.80
2024-02-29T21:50:58.473Z,48.87
2024-02-29T21:54:00.994Z,49.87
2024-02-29T21:56:46.934Z,48.87
2024-02-29T21:59:38.304Z,49.93
2024-02-29T22:02:12.085Z,45.03
2024-02-29T22:05:17.192Z,48.90
2024-02-29T22:07:51.314Z,48.23
2024-02-29T22:10:44.254Z,49.60
2024-02-29T22:13:48.809Z,52.13
2024-02-29T22:17:00.518Z,53.13
2024-02-29T22:20:18.327Z,50.40
2024-02-29T22:23:20.517Z,51.07
2024-02-29T22:26:32.045Z,51.40
2024-02-29T22:29:28.804Z,49.70
2024-02-29T22:32:40.478Z,52.67
2024-02-29T22:35:31.979Z,53.27
2024-02-29T22:38:12.909Z,51.00
2024-02-29T22:41:04.388Z,60.17
2024-02-29T22:43:35.969Z,52.80
2024-02-29T22:46:29.931Z,52.03
2024-02-29T22:49:17.910Z,55.17
2024-02-29T22:52:19.661Z,53.80
2024-02-29T22:55:12.537Z,55.30
2024-02-29T22:57:48.475Z,50.63
2024-02-29T23:00:40.562Z,51.23
2024-02-29T23:03:14.686Z,56.07
2024-02-29T23:05:46.710Z,52.50
2024-02-29T23:08:18.049Z,55.73
2024-02-29T23:10:49.284Z,55.53
2024-02-29T23:13:20.617Z,57.70
2024-02-29T23:15:51.983Z,55.83
2024-02-29T23:18:25.781Z,53.77
2024-02-29T23:20:57.955Z,58.90
2024-02-29T23:23:29.018Z,57.83
2024-02-29T23:25:59.941Z,61.80
2024-02-29T23:28:31.094Z,59.67
2024-02-29T23:31:02.219Z,58.53
2024-02-29T23:33:36.580Z,59.30
2024-02-29T23:36:09.933Z,57.10
2024-02-29T23:38:41.018Z,61.83
2024-02-29T23:41:12.056Z,61.27
2024-02-29T23:43:43.067Z,56.17
2024-02-29T23:46:14.471Z,58.47
2024-02-29T23:48:48.215Z,61.73
2024-02-29T23:51:20.998Z,57.93
2024-02-29T23:53:54.728Z,61.33
2024-02-29T23:56:25.995Z,58.97
2024-02-29T23:58:57.172Z,63.00
